Nivala, Finland

6:17 PM EEST on April 28, 2015 (GMT +0300)
IULEBORG3 | | Change Station
CLOSE
Current Station
Personal Weather Station
Location: Haapajarvi, Oulunlaani
Elevation: 298 ft
Nearby Weather Stations

Elev 298 ft 63.72 °N, 25.34 °E | Updated 17 minutes ago

Clear
Clear
49.4 °F
Feels Like 49 °F
N
1.0
Wind Variable Wind from NNW
Gusts 6.0 mph

Today
High -- | Low -- °F
--% Chance of Precip.
Yesterday
High -- | Low -- °F
Precip. -- in
5:05 AM 9:31 PM
Waxing Gibbous, 74% visible
Pressure 29.77 in
Visibility -9999.0 miles
Clouds
Windchill 49 °F
Dew Point 30 °F
Humidity 48%
Rainfall in
Snow Depth Not available.
UV Not available.
Pollen Not available.
Air Quality Not available.
Flu Activity Not available.
METAR EFKK 281450Z AUTO 30005KT 240V010 CAVOK 10/M04 Q1008

More Conditions Fewer Conditions

Pressure 29.77 in
Visibility -9999.0 miles
Clouds
Windchill 49 °F
Dew Point 30 °F
Humidity 48%
Rainfall in
Snow Depth Not available.
UV Not available.
Pollen Not available.
Air Quality Not available.
Flu Activity Not available.
METAR EFKK 281450Z AUTO 30005KT 240V010 CAVOK 10/M04 Q1008

More Conditions Fewer Conditions

10-Day Weather Forecast

Almanac

Astronomy

Apr. 28, 2015 Rise Set
Actual Time
Civil Twilight
Nautical Twilight
Astronomical Twilight
Moon
Length of Visible Light
Length of Day
Tomorrow will be .
, % of the Moon is Illuminated

Today's Extremes

Country Highs Country Lows

Community

WunderPhotos

Upload Photos

1,817,660 photos uploaded!

WunderBlogs® & News

Nearby

Air Quality

  Air Quality AQ Index Pollutant
Not available.

Snow Depth

Station Depth Elevation

Earthquake Activity

City Distance Mag. Time & Date
Minimum magnitude displayed is 2.5.

Coastal Water Temperatures

Place Temperature

Stations

Nearby Weather Stations

Station Location Temp. Windchill Dew Point Humidity Wind Precip. Elev Updated Type